To NAV CANADA Home Page Login to a new session Search on AWWS site Disclaimer Vers la page française équivalente Tips FAQ What's new on the site To the Forecasts and Observations / NOTAM section To "File a Flight Plan" website Publications and other links Update of the User's profile FIC Telephone Numbers My Weather Data Folder Route Weather Data Regional Weather Data Local Weather Data To the Forecasts and Observations / NOTAM section
Request Generated 04/24/2019 at 15:59:30 UTC . Weather information available at that time is displayed.

METAR/TAF

SMITHERS/BC    (show WxCam)

METAR CYYD 241500Z VRB02KT 25SM FEW050 M00/M07 A3030 RMK SF1 SLP283=
METAR CYYD 241400Z VRB02KT 25SM FEW040 M02/M07 A3029 RMK SF1 SLP277=
METAR CYYD 241300Z AUTO 15003KT 140V220 9SM BKN065 M01/M08 A3027 RMK SLP269=

TAF AMD CYYD 241456Z 2414/2502 VRB03KT P6SM SCT060 TEMPO 2414/2420
BKN060
BECMG 2415/2417 15008KT
FM242000 32012KT P6SM SCT060 TEMPO 2420/2502 BKN060
RMK FCST BASED ON AUTO OBS. NXT FCST BY 241900Z=
Your time UTC time
Weather data provided by Environment Canada and NAV CANADA